createdAt,value
2017-06-21T00:01:46.705Z,26.20
2017-06-21T00:04:13.670Z,26.20
2017-06-21T00:06:41.010Z,26.20
2017-06-21T00:09:08.386Z,26.10
2017-06-21T00:11:35.721Z,26.10
2017-06-21T00:14:03.115Z,26.10
2017-06-21T00:16:29.995Z,26.10
2017-06-21T00:18:56.869Z,26.10
2017-06-21T00:21:24.194Z,25.90
2017-06-21T00:23:51.070Z,25.90
2017-06-21T00:26:17.950Z,25.90
2017-06-21T00:28:44.905Z,25.80
2017-06-21T00:31:11.849Z,25.90
2017-06-21T00:33:38.803Z,25.90
2017-06-21T00:36:05.846Z,25.90
2017-06-21T00:38:32.789Z,25.80
2017-06-21T00:40:59.897Z,25.70
2017-06-21T00:43:26.885Z,25.70
2017-06-21T00:45:53.834Z,25.70
2017-06-21T00:48:20.722Z,25.80
2017-06-21T00:50:47.994Z,25.90
2017-06-21T00:53:14.872Z,25.80
2017-06-21T00:55:41.753Z,25.80
2017-06-21T00:58:08.697Z,25.90
2017-06-21T01:00:35.574Z,26.00
2017-06-21T01:03:02.453Z,25.90
2017-06-21T01:05:29.374Z,25.90
2017-06-21T01:07:56.258Z,25.90
2017-06-21T01:10:23.605Z,25.90
2017-06-21T01:12:50.541Z,25.90
2017-06-21T01:15:17.506Z,25.90
2017-06-21T01:17:44.785Z,25.90
2017-06-21T01:20:11.710Z,25.90
2017-06-21T01:22:39.062Z,25.80
2017-06-21T01:25:06.415Z,25.60
2017-06-21T01:27:33.461Z,25.60
2017-06-21T01:30:00.745Z,25.30
2017-06-21T01:32:27.638Z,25.30
2017-06-21T01:34:54.578Z,25.20
2017-06-21T01:37:21.458Z,25.20
2017-06-21T01:39:48.738Z,25.20
2017-06-21T01:42:15.649Z,25.20
2017-06-21T01:44:42.534Z,25.20
2017-06-21T01:47:09.417Z,25.20
2017-06-21T01:49:36.345Z,25.20
2017-06-21T01:52:03.234Z,25.30
2017-06-21T01:54:30.177Z,25.40
2017-06-21T01:56:57.097Z,25.30
2017-06-21T01:59:24.078Z,25.30
2017-06-21T02:01:51.022Z,25.20
2017-06-21T02:04:17.961Z,25.10
2017-06-21T02:06:44.842Z,25.00
2017-06-21T02:09:11.758Z,24.90
2017-06-21T02:11:39.116Z,25.00
2017-06-21T02:14:06.059Z,25.00
2017-06-21T02:16:32.989Z,25.00
2017-06-21T02:18:59.949Z,24.90
2017-06-21T02:21:26.899Z,24.90
2017-06-21T02:23:54.258Z,24.90
2017-06-21T02:26:21.202Z,24.90
2017-06-21T02:28:48.146Z,24.90
2017-06-21T02:31:15.073Z,24.80
2017-06-21T02:33:41.958Z,24.80
2017-06-21T02:36:09.289Z,24.90
2017-06-21T02:38:36.234Z,24.90
2017-06-21T02:41:03.117Z,24.80
2017-06-21T02:43:30.006Z,24.80
2017-06-21T02:45:56.996Z,24.70
2017-06-21T02:48:24.269Z,24.60
2017-06-21T02:50:51.166Z,24.60
2017-06-21T02:53:18.113Z,24.60
2017-06-21T02:55:45.000Z,24.60
2017-06-21T02:58:11.882Z,24.60
2017-06-21T03:00:38.805Z,24.70
2017-06-21T03:03:05.690Z,24.80
2017-06-21T03:05:32.658Z,24.70
2017-06-21T03:07:59.981Z,24.60
2017-06-21T03:10:26.941Z,24.60
2017-06-21T03:12:53.825Z,24.60
2017-06-21T03:15:30.714Z,24.60
2017-06-21T03:17:57.609Z,24.70
2017-06-21T03:20:24.710Z,24.70
2017-06-21T03:22:51.636Z,24.70
2017-06-21T03:25:18.922Z,24.70
2017-06-21T03:27:45.809Z,24.70
2017-06-21T03:30:12.772Z,24.60
2017-06-21T03:32:40.046Z,24.80
2017-06-21T03:35:06.945Z,24.80
2017-06-21T03:37:33.863Z,24.70
2017-06-21T03:40:00.850Z,24.70
2017-06-21T03:42:27.761Z,24.70
2017-06-21T03:44:54.683Z,24.60
2017-06-21T03:47:21.597Z,24.60
2017-06-21T03:49:48.945Z,24.80
2017-06-21T03:52:15.866Z,24.80
2017-06-21T03:54:42.745Z,24.70
2017-06-21T03:57:10.021Z,24.70
2017-06-21T03:59:37.034Z,24.70
2017-06-21T04:02:03.927Z,24.80
2017-06-21T04:04:30.809Z,24.70
2017-06-21T04:06:57.738Z,24.80
2017-06-21T04:09:24.622Z,24.70
2017-06-21T04:11:51.902Z,24.60
2017-06-21T04:14:18.921Z,24.60
2017-06-21T04:16:45.807Z,24.50
2017-06-21T04:19:12.759Z,24.50
2017-06-21T04:21:39.674Z,24.40
2017-06-21T04:24:07.022Z,24.40
2017-06-21T04:26:34.369Z,24.50
2017-06-21T04:29:01.303Z,24.50
2017-06-21T04:31:28.199Z,24.60
2017-06-21T04:33:55.101Z,24.60
2017-06-21T04:36:22.039Z,24.60
2017-06-21T04:38:49.001Z,24.60
2017-06-21T04:41:15.942Z,24.70
2017-06-21T04:43:42.873Z,24.80
2017-06-21T04:46:09.845Z,25.00
2017-06-21T04:48:37.193Z,24.90
2017-06-21T04:51:04.134Z,25.00
2017-06-21T04:53:31.019Z,24.90
2017-06-21T04:55:57.946Z,24.90
2017-06-21T04:58:25.286Z,24.90
2017-06-21T05:00:52.185Z,24.90
2017-06-21T05:03:19.082Z,25.00
2017-06-21T05:05:46.030Z,24.90
2017-06-21T05:08:13.311Z,24.90
2017-06-21T05:10:40.265Z,24.90
2017-06-21T05:13:07.185Z,24.80
2017-06-21T05:15:34.468Z,24.80
2017-06-21T05:18:01.354Z,24.80
2017-06-21T05:20:28.325Z,24.90
2017-06-21T05:22:55.601Z,25.30
2017-06-21T05:25:22.614Z,25.30
2017-06-21T05:27:49.566Z,25.40
2017-06-21T05:30:16.453Z,25.30
2017-06-21T05:32:43.400Z,25.30
2017-06-21T05:35:10.338Z,25.40
2017-06-21T05:37:37.217Z,25.30
2017-06-21T05:40:04.106Z,25.50
2017-06-21T05:42:31.422Z,25.90
2017-06-21T05:44:58.314Z,25.90
2017-06-21T05:47:25.590Z,26.10
2017-06-21T05:49:52.521Z,26.10
2017-06-21T05:52:19.443Z,26.10
2017-06-21T05:54:46.385Z,26.10
2017-06-21T05:57:13.376Z,26.10
2017-06-21T05:59:40.254Z,26.10
2017-06-21T06:02:07.256Z,26.20
2017-06-21T06:04:34.218Z,26.30
2017-06-21T06:07:01.217Z,26.30
2017-06-21T06:09:28.102Z,26.30
2017-06-21T06:11:55.037Z,26.40
2017-06-21T06:14:21.972Z,26.50
2017-06-21T06:16:49.253Z,26.70
2017-06-21T06:19:16.268Z,26.70
2017-06-21T06:21:43.562Z,27.00
2017-06-21T06:24:10.448Z,27.00
2017-06-21T06:26:37.396Z,27.00
2017-06-21T06:29:04.359Z,27.00
2017-06-21T06:31:31.306Z,27.20
2017-06-21T06:33:58.613Z,27.30
2017-06-21T06:36:25.581Z,27.30
2017-06-21T06:38:52.509Z,27.40
2017-06-21T06:41:19.389Z,27.40
2017-06-21T06:43:46.269Z,27.60
2017-06-21T06:46:13.280Z,27.80
2017-06-21T06:48:40.166Z,27.80
2017-06-21T06:51:07.052Z,27.70
2017-06-21T06:53:34.019Z,27.80
2017-06-21T06:56:00.909Z,27.60
2017-06-21T06:58:27.818Z,27.70
2017-06-21T07:00:55.166Z,27.70
2017-06-21T07:03:22.070Z,27.70
2017-06-21T07:05:48.953Z,27.90
2017-06-21T07:08:15.901Z,28.10
2017-06-21T07:10:42.862Z,28.20
2017-06-21T07:13:10.210Z,28.20
2017-06-21T07:15:37.095Z,28.20
2017-06-21T07:18:03.969Z,28.20
2017-06-21T07:20:30.942Z,28.00
2017-06-21T07:22:57.831Z,28.00
2017-06-21T07:25:24.730Z,28.00
2017-06-21T07:27:51.685Z,27.90
2017-06-21T07:30:18.697Z,28.00
2017-06-21T07:32:45.677Z,27.80
2017-06-21T07:35:12.629Z,27.80
2017-06-21T07:37:40.026Z,27.70
2017-06-21T07:40:06.906Z,27.70
2017-06-21T07:42:33.825Z,27.80
2017-06-21T07:45:00.710Z,27.90
2017-06-21T07:47:27.610Z,28.10
2017-06-21T07:49:54.541Z,28.20
2017-06-21T07:52:21.434Z,28.20
2017-06-21T07:54:48.319Z,28.10
2017-06-21T07:57:15.753Z,28.20
2017-06-21T07:59:42.677Z,28.20
2017-06-21T08:02:09.966Z,28.40
2017-06-21T08:04:36.890Z,28.30
2017-06-21T08:07:04.225Z,28.40
2017-06-21T08:09:31.173Z,28.40
2017-06-21T08:11:58.221Z,28.40
2017-06-21T08:14:25.192Z,28.50
2017-06-21T08:16:52.526Z,28.50
2017-06-21T08:19:19.470Z,28.50
2017-06-21T08:21:46.440Z,28.60
2017-06-21T08:24:13.777Z,28.90
2017-06-21T08:26:40.728Z,28.90
2017-06-21T08:29:08.077Z,29.20
2017-06-21T08:31:35.080Z,29.20
2017-06-21T08:34:01.954Z,28.90
2017-06-21T08:36:28.920Z,28.90
2017-06-21T08:38:55.802Z,28.70
2017-06-21T08:41:22.820Z,28.70
2017-06-21T08:43:50.137Z,28.90
2017-06-21T08:46:17.017Z,28.90
2017-06-21T08:48:44.369Z,29.20
2017-06-21T08:51:11.315Z,29.20
2017-06-21T08:53:38.203Z,29.20
2017-06-21T08:56:05.113Z,29.40
2017-06-21T08:58:32.458Z,29.50
2017-06-21T09:00:59.406Z,29.50
2017-06-21T09:03:26.358Z,29.50
2017-06-21T09:05:53.741Z,29.70
2017-06-21T09:08:20.617Z,29.70
2017-06-21T09:10:47.599Z,29.80
2017-06-21T09:13:14.538Z,29.70
2017-06-21T09:15:41.593Z,29.40
2017-06-21T09:18:08.545Z,29.50
2017-06-21T09:20:35.941Z,29.80
2017-06-21T09:23:02.889Z,29.80
2017-06-21T09:25:29.829Z,29.60
2017-06-21T09:27:58.006Z,29.90
2017-06-21T09:30:24.966Z,29.90
2017-06-21T09:32:52.241Z,30.30
2017-06-21T09:35:19.162Z,30.30
2017-06-21T09:37:46.820Z,30.50
2017-06-21T09:40:14.175Z,30.50
2017-06-21T09:42:41.449Z,30.50
2017-06-21T09:45:08.373Z,30.50
2017-06-21T09:47:35.654Z,30.50
2017-06-21T09:50:02.530Z,30.50
2017-06-21T09:52:29.462Z,30.40
2017-06-21T09:54:56.345Z,30.40
2017-06-21T09:57:23.262Z,30.60
2017-06-21T09:59:50.258Z,30.80
2017-06-21T10:02:17.194Z,31.00
2017-06-21T10:04:44.150Z,31.10
2017-06-21T10:07:11.115Z,31.10
2017-06-21T10:09:38.046Z,31.10
2017-06-21T10:12:04.969Z,31.20
2017-06-21T10:14:31.930Z,31.20
2017-06-21T10:16:58.878Z,31.10
2017-06-21T10:19:25.806Z,31.10
2017-06-21T10:21:52.814Z,30.90
2017-06-21T10:24:19.690Z,30.90
2017-06-21T10:26:46.682Z,31.00
2017-06-21T10:29:13.965Z,31.00
2017-06-21T10:31:41.057Z,31.00
2017-06-21T10:34:08.018Z,31.20
2017-06-21T10:36:34.899Z,31.20
2017-06-21T10:39:01.805Z,31.10
2017-06-21T10:41:28.753Z,30.80
2017-06-21T10:43:55.639Z,30.70
2017-06-21T10:46:22.518Z,30.80
2017-06-21T10:48:49.501Z,31.00
2017-06-21T10:51:16.845Z,31.30
2017-06-21T10:53:44.129Z,31.40
2017-06-21T10:56:11.439Z,31.40
2017-06-21T10:58:38.321Z,31.50
2017-06-21T11:01:05.205Z,31.60
2017-06-21T11:03:32.216Z,31.30
2017-06-21T11:05:59.142Z,31.10
2017-06-21T11:08:26.042Z,31.30
2017-06-21T11:10:52.925Z,31.40
2017-06-21T11:13:19.878Z,31.60
2017-06-21T11:15:46.759Z,31.70
2017-06-21T11:18:14.098Z,31.80
2017-06-21T11:20:40.978Z,31.80
2017-06-21T11:23:07.940Z,31.80
2017-06-21T11:25:34.865Z,31.90
2017-06-21T11:28:02.158Z,31.90
2017-06-21T11:30:29.087Z,31.90
2017-06-21T11:32:56.062Z,31.90
2017-06-21T11:35:22.937Z,31.90
2017-06-21T11:37:49.848Z,32.00
2017-06-21T11:40:16.825Z,32.10
2017-06-21T11:42:43.778Z,32.10
2017-06-21T11:45:10.693Z,32.00
2017-06-21T11:47:37.617Z,32.00
2017-06-21T11:50:04.502Z,32.10
2017-06-21T11:52:31.399Z,32.20
2017-06-21T11:54:58.412Z,32.20
2017-06-21T11:57:25.765Z,32.50
2017-06-21T11:59:52.646Z,32.50
2017-06-21T12:02:19.584Z,32.70
2017-06-21T12:04:46.465Z,32.80
2017-06-21T12:07:13.446Z,32.90
2017-06-21T12:09:40.489Z,32.80
2017-06-21T12:12:07.443Z,32.80
2017-06-21T12:14:34.341Z,32.80
2017-06-21T12:17:01.330Z,32.90
2017-06-21T12:19:28.216Z,32.90
2017-06-21T12:21:55.248Z,32.90
2017-06-21T12:24:22.377Z,32.80
2017-06-21T12:26:49.281Z,32.70
2017-06-21T12:29:16.166Z,32.50
2017-06-21T12:31:43.081Z,32.50
2017-06-21T12:34:10.069Z,32.50
2017-06-21T12:36:37.342Z,32.40
2017-06-21T12:39:06.577Z,32.40
2017-06-21T12:41:33.630Z,32.60
2017-06-21T12:44:00.509Z,32.90
2017-06-21T12:46:27.438Z,33.00
2017-06-21T12:48:54.408Z,33.10
2017-06-21T12:51:21.758Z,33.20
2017-06-21T12:53:48.710Z,33.30
2017-06-21T12:56:15.649Z,33.30
2017-06-21T12:58:42.537Z,33.30
2017-06-21T13:01:09.461Z,33.40
2017-06-21T13:03:36.741Z,33.60
2017-06-21T13:06:03.625Z,33.60
2017-06-21T13:08:30.594Z,33.40
2017-06-21T13:10:57.898Z,33.20
2017-06-21T13:13:24.832Z,33.20
2017-06-21T13:15:51.733Z,32.80
2017-06-21T13:18:18.616Z,32.80
2017-06-21T13:20:45.590Z,33.00
2017-06-21T13:23:12.469Z,33.20
2017-06-21T13:25:39.420Z,33.60
2017-06-21T13:28:06.338Z,34.00
2017-06-21T13:30:33.221Z,34.00
2017-06-21T13:33:00.571Z,34.10
2017-06-21T13:35:27.890Z,34.10
2017-06-21T13:37:54.773Z,34.10
2017-06-21T13:40:22.145Z,34.10
2017-06-21T13:42:49.069Z,34.10
2017-06-21T13:45:15.977Z,34.00
2017-06-21T13:47:42.963Z,33.90
2017-06-21T13:50:09.943Z,34.00
2017-06-21T13:52:36.857Z,34.00
2017-06-21T13:55:04.206Z,34.30
2017-06-21T13:57:31.174Z,34.30
2017-06-21T13:59:58.458Z,34.40
2017-06-21T14:02:25.341Z,34.40
2017-06-21T14:04:52.302Z,34.60
2017-06-21T14:07:19.254Z,34.60
2017-06-21T14:09:46.581Z,34.80
2017-06-21T14:12:13.589Z,34.80
2017-06-21T14:14:40.509Z,34.90
2017-06-21T14:17:07.834Z,34.90
2017-06-21T14:19:34.812Z,34.90
2017-06-21T14:22:02.155Z,34.90
2017-06-21T14:24:29.077Z,34.90
2017-06-21T14:26:55.989Z,35.00
2017-06-21T14:29:22.877Z,35.10
2017-06-21T14:31:49.881Z,35.00
2017-06-21T14:34:16.769Z,35.20
2017-06-21T14:36:43.730Z,35.20
2017-06-21T14:39:10.673Z,35.20
2017-06-21T14:41:37.575Z,35.30
2017-06-21T14:44:04.819Z,35.10
2017-06-21T14:46:31.723Z,34.90
2017-06-21T14:48:58.601Z,34.80
2017-06-21T14:51:25.555Z,34.80
2017-06-21T14:53:52.450Z,34.60
2017-06-21T14:56:19.343Z,34.30
2017-06-21T14:58:46.285Z,34.30
2017-06-21T15:01:13.165Z,34.30
2017-06-21T15:03:40.086Z,34.20
2017-06-21T15:06:06.966Z,34.20
2017-06-21T15:08:33.941Z,34.30
2017-06-21T15:11:01.325Z,34.60
2017-06-21T15:13:28.210Z,34.70
2017-06-21T15:15:55.094Z,34.80
2017-06-21T15:18:22.421Z,35.10
2017-06-21T15:20:49.301Z,35.10
2017-06-21T15:23:16.581Z,34.80
2017-06-21T15:25:43.513Z,34.80
2017-06-21T15:28:10.395Z,34.70
2017-06-21T15:30:37.312Z,34.80
2017-06-21T15:33:04.245Z,34.90
2017-06-21T15:35:31.133Z,35.00
2017-06-21T15:37:58.025Z,35.10
2017-06-21T15:40:25.370Z,35.20
2017-06-21T15:42:52.275Z,35.20
2017-06-21T15:45:19.201Z,35.30
2017-06-21T15:47:46.085Z,35.30
2017-06-21T15:50:13.053Z,35.30
2017-06-21T15:52:39.994Z,35.20
2017-06-21T15:55:06.949Z,35.10
2017-06-21T15:57:34.253Z,35.00
2017-06-21T16:00:01.173Z,35.00
2017-06-21T16:02:28.066Z,35.10
2017-06-21T16:04:54.957Z,35.30
2017-06-21T16:07:21.977Z,35.30
2017-06-21T16:09:49.031Z,35.40
2017-06-21T16:12:15.945Z,35.60
2017-06-21T16:14:42.878Z,35.60
2017-06-21T16:17:09.865Z,35.80
2017-06-21T16:19:36.761Z,35.80
2017-06-21T16:22:03.758Z,35.80
2017-06-21T16:24:30.705Z,35.80
2017-06-21T16:26:57.659Z,35.90
2017-06-21T16:29:24.605Z,36.30
2017-06-21T16:31:51.903Z,37.40
2017-06-21T16:34:18.789Z,37.40
2017-06-21T16:36:45.789Z,38.10
2017-06-21T16:39:12.688Z,38.80
2017-06-21T16:41:39.569Z,39.60
2017-06-21T16:44:06.545Z,40.30
2017-06-21T16:46:33.425Z,41.00
2017-06-21T16:49:00.387Z,41.70
2017-06-21T16:51:27.261Z,42.30
2017-06-21T16:53:54.232Z,42.70
2017-06-21T16:56:21.157Z,42.90
2017-06-21T16:58:48.129Z,43.10
2017-06-21T17:01:15.072Z,43.30
2017-06-21T17:03:42.005Z,43.50
2017-06-21T17:06:08.985Z,43.90
2017-06-21T17:08:36.331Z,44.40
2017-06-21T17:11:03.303Z,44.40
2017-06-21T17:13:30.242Z,44.50
2017-06-21T17:15:57.129Z,44.40
2017-06-21T17:18:24.137Z,44.30
2017-06-21T17:20:51.166Z,44.20
2017-06-21T17:23:18.441Z,44.30
2017-06-21T17:25:45.384Z,44.30
2017-06-21T17:28:12.731Z,44.30
2017-06-21T17:30:40.074Z,44.40
2017-06-21T17:33:07.017Z,44.40
2017-06-21T17:35:34.008Z,44.50
2017-06-21T17:38:00.893Z,44.60
2017-06-21T17:40:27.885Z,44.40
2017-06-21T17:42:54.766Z,44.30
2017-06-21T17:45:21.646Z,44.30
2017-06-21T17:47:48.599Z,44.10
2017-06-21T17:50:15.499Z,43.90
2017-06-21T17:52:42.676Z,43.60
2017-06-21T17:55:10.006Z,42.40
2017-06-21T17:57:36.890Z,42.40
2017-06-21T18:00:03.822Z,41.40
2017-06-21T18:02:30.805Z,40.40
2017-06-21T18:04:58.089Z,38.30
2017-06-21T18:07:24.997Z,38.30
2017-06-21T18:09:52.341Z,36.80
2017-06-21T18:12:19.332Z,36.80
2017-06-21T18:14:46.229Z,36.00
2017-06-21T18:17:13.593Z,34.80
2017-06-21T18:19:40.542Z,34.80
2017-06-21T18:22:07.902Z,34.10
2017-06-21T18:24:35.246Z,33.90
2017-06-21T18:27:02.194Z,33.90
2017-06-21T18:29:29.153Z,33.60
2017-06-21T18:31:56.429Z,33.10
2017-06-21T18:34:23.445Z,33.10
2017-06-21T18:36:50.408Z,33.00
2017-06-21T18:39:17.685Z,32.80
2017-06-21T18:41:44.593Z,32.80
2017-06-21T18:44:11.537Z,32.70
2017-06-21T18:46:38.417Z,32.50
2017-06-21T18:49:05.474Z,32.50
2017-06-21T18:51:32.473Z,32.40
2017-06-21T18:53:59.437Z,32.30
2017-06-21T18:56:26.724Z,32.20
2017-06-21T18:58:53.645Z,32.20
2017-06-21T19:01:20.922Z,31.90
2017-06-21T19:03:47.801Z,31.90
2017-06-21T19:06:14.733Z,31.80
2017-06-21T19:08:41.667Z,31.70
2017-06-21T19:11:08.549Z,31.60
2017-06-21T19:13:35.470Z,31.40
2017-06-21T19:16:02.351Z,31.30
2017-06-21T19:18:29.231Z,31.20
2017-06-21T19:20:56.166Z,31.10
2017-06-21T19:23:23.506Z,31.00
2017-06-21T19:25:50.797Z,30.90
2017-06-21T19:28:17.737Z,30.90
2017-06-21T19:30:44.653Z,30.80
2017-06-21T19:33:12.047Z,30.60
2017-06-21T19:35:39.046Z,30.60
2017-06-21T19:38:05.966Z,30.50
2017-06-21T19:40:32.845Z,30.40
2017-06-21T19:42:59.836Z,30.30
2017-06-21T19:45:26.792Z,30.20
2017-06-21T19:47:53.679Z,30.20
2017-06-21T19:50:20.584Z,30.20
2017-06-21T19:52:47.506Z,30.20
2017-06-21T19:55:14.417Z,30.10
2017-06-21T19:57:41.303Z,30.10
2017-06-21T20:00:08.324Z,30.10
2017-06-21T20:02:35.702Z,30.10
2017-06-21T20:05:02.603Z,30.10
2017-06-21T20:07:29.564Z,30.00
2017-06-21T20:09:56.488Z,30.00
2017-06-21T20:12:23.374Z,29.80
2017-06-21T20:14:50.713Z,29.60
2017-06-21T20:17:18.077Z,29.40
2017-06-21T20:19:45.377Z,29.30
2017-06-21T20:22:12.367Z,29.30
2017-06-21T20:24:39.325Z,29.20
2017-06-21T20:27:06.609Z,29.20
2017-06-21T20:29:33.614Z,29.20
2017-06-21T20:32:00.506Z,29.20
2017-06-21T20:34:27.401Z,29.10
2017-06-21T20:36:54.336Z,29.10
2017-06-21T20:39:21.213Z,29.10
2017-06-21T20:41:48.497Z,29.00
2017-06-21T20:44:15.457Z,29.00
2017-06-21T20:46:42.366Z,28.90
2017-06-21T20:49:09.259Z,28.80
2017-06-21T20:51:36.183Z,28.70
2017-06-21T20:54:03.075Z,28.70
2017-06-21T20:56:29.966Z,28.60
2017-06-21T20:58:56.901Z,28.50
2017-06-21T21:01:23.826Z,28.50
2017-06-21T21:03:50.715Z,28.50
2017-06-21T21:06:17.649Z,28.40
2017-06-21T21:08:44.549Z,28.40
2017-06-21T21:11:11.432Z,28.20
2017-06-21T21:13:38.378Z,28.10
2017-06-21T21:16:05.386Z,28.00
2017-06-21T21:18:32.279Z,28.00
2017-06-21T21:20:59.213Z,28.10
2017-06-21T21:23:27.481Z,28.10
2017-06-21T21:25:54.373Z,28.00
2017-06-21T21:28:21.297Z,28.00
2017-06-21T21:30:48.190Z,28.00
2017-06-21T21:33:15.078Z,27.90
2017-06-21T21:35:42.016Z,27.90
2017-06-21T21:38:08.910Z,28.00
2017-06-21T21:40:35.793Z,27.90
2017-06-21T21:43:02.746Z,27.70
2017-06-21T21:45:30.023Z,27.30
2017-06-21T21:47:56.912Z,27.30
2017-06-21T21:50:23.841Z,27.20
2017-06-21T21:52:50.782Z,27.10
2017-06-21T21:55:17.662Z,27.10
2017-06-21T21:57:44.593Z,27.10
2017-06-21T22:00:11.476Z,27.00
2017-06-21T22:02:38.374Z,26.90
2017-06-21T22:05:05.306Z,26.90
2017-06-21T22:07:32.190Z,26.70
2017-06-21T22:09:59.074Z,26.60
2017-06-21T22:12:25.997Z,26.50
2017-06-21T22:14:53.283Z,26.40
2017-06-21T22:17:20.170Z,26.40
2017-06-21T22:19:47.093Z,26.40
2017-06-21T22:22:13.978Z,26.40
2017-06-21T22:24:40.862Z,26.40
2017-06-21T22:27:07.783Z,26.30
2017-06-21T22:29:35.063Z,26.30
2017-06-21T22:32:01.975Z,26.30
2017-06-21T22:34:29.328Z,26.40
2017-06-21T22:36:56.677Z,26.40
2017-06-21T22:39:23.554Z,26.50
2017-06-21T22:41:50.870Z,26.50
2017-06-21T22:44:17.757Z,26.30
2017-06-21T22:46:44.642Z,26.50
2017-06-21T22:49:11.606Z,26.50
2017-06-21T22:51:38.488Z,26.50
2017-06-21T22:54:05.373Z,26.50
2017-06-21T22:56:32.349Z,26.40
2017-06-21T22:58:59.294Z,26.40
2017-06-21T23:01:26.186Z,26.50
2017-06-21T23:03:53.105Z,26.50
2017-06-21T23:06:20.484Z,26.30
2017-06-21T23:08:47.362Z,26.40
2017-06-21T23:11:14.333Z,26.30
2017-06-21T23:13:41.298Z,26.20
2017-06-21T23:16:08.641Z,26.00
2017-06-21T23:18:35.997Z,26.00
2017-06-21T23:21:03.273Z,26.00
2017-06-21T23:23:30.162Z,26.00
2017-06-21T23:25:57.099Z,26.00
2017-06-21T23:28:23.985Z,25.90
2017-06-21T23:30:50.881Z,25.80
2017-06-21T23:33:17.877Z,25.70
2017-06-21T23:35:44.765Z,25.60
2017-06-21T23:38:11.649Z,25.50
2017-06-21T23:40:38.578Z,25.40
2017-06-21T23:43:05.567Z,25.40
2017-06-21T23:45:32.851Z,25.50
2017-06-21T23:47:59.826Z,25.50
2017-06-21T23:50:26.709Z,25.50
2017-06-21T23:52:53.585Z,25.60
2017-06-21T23:55:20.570Z,25.60
2017-06-21T23:57:47.513Z,25.60
